createdAt,value
2023-04-18T00:01:09.829Z,4.78
2023-04-18T00:03:38.964Z,4.43
2023-04-18T00:06:06.876Z,4.05
2023-04-18T00:08:34.314Z,4.35
2023-04-18T00:11:01.915Z,4.60
2023-04-18T00:13:29.314Z,4.45
2023-04-18T00:15:56.794Z,5.12
2023-04-18T00:18:26.600Z,4.22
2023-04-18T00:20:54.298Z,4.80
2023-04-18T00:23:22.305Z,4.15
2023-04-18T00:25:49.951Z,4.82
2023-04-18T00:28:17.307Z,4.93
2023-04-18T00:30:45.276Z,4.20
2023-04-18T00:33:12.896Z,3.85
2023-04-18T00:35:40.300Z,4.30
2023-04-18T00:38:08.359Z,4.43
2023-04-18T00:40:36.218Z,4.68
2023-04-18T00:43:03.571Z,4.55
2023-04-18T00:45:31.114Z,4.50
2023-04-18T00:47:58.852Z,4.35
2023-04-18T00:50:26.380Z,4.03
2023-04-18T00:52:53.760Z,4.78
2023-04-18T00:55:21.386Z,5.07
2023-04-18T00:57:48.786Z,4.95
2023-04-18T01:00:16.224Z,4.40
2023-04-18T01:02:44.137Z,4.50
2023-04-18T01:05:11.992Z,5.50
2023-04-18T01:07:42.349Z,4.55
2023-04-18T01:10:10.584Z,4.55
2023-04-18T01:12:37.966Z,4.78
2023-04-18T01:15:05.886Z,4.50
2023-04-18T01:17:35.468Z,5.22
2023-04-18T01:20:04.923Z,5.45
2023-04-18T01:22:33.642Z,4.57
2023-04-18T01:25:01.135Z,4.97
2023-04-18T01:27:28.502Z,5.35
2023-04-18T01:29:56.115Z,4.97
2023-04-18T01:32:23.520Z,5.00
2023-04-18T01:34:50.941Z,5.50
2023-04-18T01:37:18.563Z,5.15
2023-04-18T01:39:45.929Z,5.10
2023-04-18T01:42:13.293Z,5.25
2023-04-18T01:44:40.921Z,5.18
2023-04-18T01:47:08.240Z,5.10
2023-04-18T01:49:35.608Z,4.87
2023-04-18T01:52:03.221Z,5.05
2023-04-18T01:54:30.626Z,5.00
2023-04-18T01:56:57.995Z,5.20
2023-04-18T01:59:25.662Z,5.18
2023-04-18T02:01:53.166Z,4.90
2023-04-18T02:04:20.949Z,4.70
2023-04-18T02:06:48.326Z,6.10
2023-04-18T02:09:16.271Z,4.70
2023-04-18T02:11:43.891Z,5.30
2023-04-18T02:14:11.587Z,5.60
2023-04-18T02:16:39.567Z,5.43
2023-04-18T02:19:07.029Z,5.30
2023-04-18T02:21:34.716Z,5.32
2023-04-18T02:24:02.308Z,5.30
2023-04-18T02:26:29.646Z,5.93
2023-04-18T02:28:58.767Z,5.72
2023-04-18T02:31:26.747Z,5.47
2023-04-18T02:33:54.246Z,5.15
2023-04-18T02:36:22.265Z,5.07
2023-04-18T02:38:49.931Z,5.28
2023-04-18T02:41:20.725Z,5.05
2023-04-18T02:43:48.088Z,5.68
2023-04-18T02:46:15.754Z,5.82
2023-04-18T02:48:43.715Z,5.40
2023-04-18T02:51:12.133Z,5.40
2023-04-18T02:53:39.779Z,6.93
2023-04-18T02:56:07.692Z,5.80
2023-04-18T02:58:36.437Z,5.95
2023-04-18T03:01:05.272Z,5.62
2023-04-18T03:03:38.556Z,5.65
2023-04-18T03:06:08.405Z,5.65
2023-04-18T03:08:36.217Z,6.20
2023-04-18T03:11:03.649Z,5.20
2023-04-18T03:13:31.366Z,6.07
2023-04-18T03:15:59.017Z,5.28
2023-04-18T03:18:27.017Z,6.05
2023-04-18T03:20:55.905Z,6.40
2023-04-18T03:23:23.552Z,5.95
2023-04-18T03:25:50.996Z,5.47
2023-04-18T03:28:19.002Z,6.20
2023-04-18T03:30:46.405Z,5.35
2023-04-18T03:33:14.817Z,5.93
2023-04-18T03:35:42.985Z,6.00
2023-04-18T03:38:10.487Z,6.00
2023-04-18T03:40:39.063Z,5.72
2023-04-18T03:43:07.211Z,6.18
2023-04-18T03:45:35.055Z,6.05
2023-04-18T03:48:02.501Z,5.62
2023-04-18T03:50:31.282Z,6.22
2023-04-18T03:52:59.145Z,6.25
2023-04-18T03:55:26.572Z,6.18
2023-04-18T03:57:54.530Z,5.90
2023-04-18T04:00:22.170Z,5.97
2023-04-18T04:02:50.862Z,6.40
2023-04-18T04:05:18.701Z,6.15
2023-04-18T04:07:46.529Z,6.07
2023-04-18T04:10:14.167Z,5.43
2023-04-18T04:12:41.568Z,5.62
2023-04-18T04:15:09.536Z,5.90
2023-04-18T04:17:37.734Z,6.03
2023-04-18T04:20:06.328Z,6.03
2023-04-18T04:22:34.584Z,5.00
2023-04-18T04:25:02.702Z,5.22
2023-04-18T04:27:33.935Z,5.62
2023-04-18T04:30:02.682Z,6.00
2023-04-18T04:32:30.211Z,5.28
2023-04-18T04:34:57.602Z,4.97
2023-04-18T04:37:25.298Z,5.25
2023-04-18T04:39:54.004Z,4.95
2023-04-18T04:42:25.285Z,4.60
2023-04-18T04:44:54.309Z,3.97
2023-04-18T04:47:22.024Z,5.03
2023-04-18T04:49:49.468Z,4.95
2023-04-18T04:52:17.114Z,4.72
2023-04-18T04:54:45.888Z,4.85
2023-04-18T04:57:13.988Z,4.45
2023-04-18T04:59:41.880Z,4.70
2023-04-18T05:02:09.311Z,5.30
2023-04-18T05:04:36.920Z,5.12
2023-04-18T05:07:04.677Z,4.82
2023-04-18T05:09:31.990Z,4.97
2023-04-18T05:11:59.369Z,4.68
2023-04-18T05:14:27.699Z,4.78
2023-04-18T05:16:55.859Z,4.70
2023-04-18T05:19:23.324Z,4.60
2023-04-18T05:21:51.386Z,4.78
2023-04-18T05:24:18.914Z,4.07
2023-04-18T05:26:46.280Z,4.80
2023-04-18T05:29:13.884Z,5.12
2023-04-18T05:31:41.235Z,4.87
2023-04-18T05:34:08.620Z,4.60
2023-04-18T05:36:36.208Z,4.40
2023-04-18T05:39:06.087Z,4.75
2023-04-18T05:41:33.440Z,5.22
2023-04-18T05:44:16.886Z,5.00
2023-04-18T05:46:44.456Z,4.87
2023-04-18T05:49:12.337Z,5.72
2023-04-18T05:51:39.712Z,5.65
2023-04-18T05:54:07.058Z,4.72
2023-04-18T05:56:34.690Z,5.90
2023-04-18T05:59:02.045Z,5.18
2023-04-18T06:01:29.401Z,5.53
2023-04-18T06:03:57.496Z,4.90
2023-04-18T06:06:26.366Z,5.87
2023-04-18T06:08:54.353Z,5.45
2023-04-18T06:11:22.677Z,6.85
2023-04-18T06:13:50.103Z,6.05
2023-04-18T06:16:17.488Z,5.90
2023-04-18T06:18:45.262Z,6.00
2023-04-18T06:21:13.239Z,5.87
2023-04-18T06:23:40.660Z,5.32
2023-04-18T06:26:09.247Z,5.57
2023-04-18T06:28:36.583Z,5.68
2023-04-18T06:31:03.982Z,5.50
2023-04-18T06:33:31.620Z,6.12
2023-04-18T06:35:59.172Z,5.47
2023-04-18T06:38:26.613Z,5.57
2023-04-18T06:40:54.268Z,4.85
2023-04-18T06:43:22.119Z,4.22
2023-04-18T06:45:49.929Z,3.40
2023-04-18T06:48:17.626Z,4.12
2023-04-18T06:50:44.934Z,4.25
2023-04-18T06:53:12.379Z,4.57
2023-04-18T06:55:40.927Z,4.68
2023-04-18T06:58:09.684Z,4.12
2023-04-18T07:00:37.064Z,3.70
2023-04-18T07:03:11.355Z,5.07
2023-04-18T07:05:42.048Z,3.72
2023-04-18T07:08:09.663Z,4.53
2023-04-18T07:10:37.093Z,4.00
2023-04-18T07:13:04.683Z,4.20
2023-04-18T07:15:34.103Z,4.40
2023-04-18T07:18:01.475Z,4.82
2023-04-18T07:20:28.959Z,5.97
2023-04-18T07:22:56.632Z,4.82
2023-04-18T07:25:24.122Z,5.47
2023-04-18T07:27:51.494Z,5.95
2023-04-18T07:30:19.133Z,5.35
2023-04-18T07:32:47.536Z,5.55
2023-04-18T07:35:15.349Z,5.50
2023-04-18T07:37:42.979Z,4.80
2023-04-18T07:40:10.802Z,4.93
2023-04-18T07:42:38.252Z,4.35
2023-04-18T07:45:06.462Z,4.85
2023-04-18T07:47:33.954Z,5.60
2023-04-18T07:50:01.461Z,4.87
2023-04-18T07:52:29.790Z,5.40
2023-04-18T07:54:57.495Z,4.75
2023-04-18T07:57:24.895Z,5.62
2023-04-18T07:59:53.926Z,4.93
2023-04-18T08:04:50.081Z,5.55
2023-04-18T08:07:17.619Z,5.45
2023-04-18T08:09:44.952Z,4.82
2023-04-18T08:12:12.594Z,5.37
2023-04-18T08:14:39.949Z,5.80
2023-04-18T08:17:07.424Z,5.40
2023-04-18T08:19:35.090Z,5.65
2023-04-18T08:22:10.266Z,5.95
2023-04-18T08:24:38.514Z,5.70
2023-04-18T08:27:06.181Z,5.97
2023-04-18T08:29:33.632Z,5.55
2023-04-18T08:32:01.360Z,6.03
2023-04-18T08:34:29.365Z,6.10
2023-04-18T08:36:56.742Z,5.85
2023-04-18T08:39:25.318Z,5.87
2023-04-18T08:41:59.917Z,5.75
2023-04-18T08:44:28.034Z,6.10
2023-04-18T08:46:56.031Z,6.30
2023-04-18T08:49:24.867Z,7.10
2023-04-18T08:51:53.028Z,5.75
2023-04-18T08:54:20.876Z,6.80
2023-04-18T08:56:52.684Z,6.25
2023-04-18T08:59:20.520Z,6.00
2023-04-18T09:01:59.496Z,7.00
2023-04-18T09:04:37.110Z,5.55
2023-04-18T09:07:06.356Z,6.35
2023-04-18T09:09:52.961Z,7.68
2023-04-18T09:12:22.593Z,7.35
2023-04-18T09:14:54.231Z,6.93
2023-04-18T09:17:31.695Z,7.50
2023-04-18T09:19:59.887Z,7.87
2023-04-18T09:22:30.328Z,8.55
2023-04-18T09:24:58.302Z,7.93
2023-04-18T09:27:26.122Z,7.82
2023-04-18T09:29:55.271Z,8.23
2023-04-18T09:32:26.815Z,7.87
2023-04-18T09:35:01.379Z,7.62
2023-04-18T09:37:30.287Z,8.90
2023-04-18T09:39:57.940Z,7.55
2023-04-18T09:42:28.239Z,7.30
2023-04-18T09:45:00.492Z,8.35
2023-04-18T09:47:28.327Z,8.55
2023-04-18T09:49:55.896Z,9.60
2023-04-18T09:52:24.906Z,9.48
2023-04-18T09:54:58.314Z,9.20
2023-04-18T09:57:29.657Z,8.75
2023-04-18T10:00:17.850Z,8.20
2023-04-18T10:02:58.572Z,8.35
2023-04-18T10:05:27.583Z,8.38
2023-04-18T10:07:55.794Z,9.02
2023-04-18T10:10:23.632Z,8.13
2023-04-18T10:12:52.839Z,8.35
2023-04-18T10:15:21.318Z,8.85
2023-04-18T10:18:04.193Z,8.35
2023-04-18T10:20:33.652Z,8.15
2023-04-18T10:23:01.258Z,9.30
2023-04-18T10:25:34.757Z,8.43
2023-04-18T10:28:02.698Z,8.70
2023-04-18T10:30:41.821Z,8.20
2023-04-18T10:36:08.016Z,9.95
2023-04-18T10:38:49.621Z,9.00
2023-04-18T10:41:16.853Z,8.27
2023-04-18T10:44:15.990Z,8.45
2023-04-18T10:46:52.977Z,8.65
2023-04-18T10:49:26.803Z,9.60
2023-04-18T10:51:58.387Z,8.90
2023-04-18T10:54:30.712Z,8.05
2023-04-18T10:56:59.201Z,8.00
2023-04-18T10:59:27.017Z,7.40
2023-04-18T11:01:59.699Z,8.38
2023-04-18T11:04:28.336Z,7.43
2023-04-18T11:06:57.465Z,7.70
2023-04-18T11:09:24.877Z,7.60
2023-04-18T11:12:08.949Z,7.22
2023-04-18T11:14:42.704Z,7.18
2023-04-18T11:17:23.610Z,8.10
2023-04-18T11:19:54.848Z,7.50
2023-04-18T11:22:22.497Z,7.40
2023-04-18T11:24:49.843Z,7.97
2023-04-18T11:27:17.218Z,8.52
2023-04-18T11:29:44.892Z,8.27
2023-04-18T11:32:12.509Z,8.25
2023-04-18T11:34:39.962Z,7.72
2023-04-18T11:37:08.324Z,8.52
2023-04-18T11:39:42.973Z,8.52
2023-04-18T11:42:10.650Z,8.60
2023-04-18T11:44:39.969Z,8.65
2023-04-18T11:47:22.630Z,8.82
2023-04-18T11:49:58.968Z,8.63
2023-04-18T11:52:30.758Z,8.95
2023-04-18T11:55:13.475Z,9.27
2023-04-18T11:57:41.070Z,9.45
2023-04-18T12:00:10.130Z,9.68
2023-04-18T12:02:42.733Z,9.00
2023-04-18T12:05:12.018Z,8.27
2023-04-18T12:07:45.852Z,8.55
2023-04-18T12:10:22.208Z,8.38
2023-04-18T12:12:50.749Z,8.60
2023-04-18T12:15:18.596Z,8.23
2023-04-18T12:17:48.414Z,8.75
2023-04-18T12:20:16.135Z,7.80
2023-04-18T12:22:51.068Z,8.65
2023-04-18T12:25:26.712Z,8.07
2023-04-18T12:27:59.180Z,7.68
2023-04-18T12:30:30.994Z,8.75
2023-04-18T12:32:59.966Z,9.10
2023-04-18T12:35:27.879Z,8.73
2023-04-18T12:37:56.162Z,8.07
2023-04-18T12:40:24.058Z,8.00
2023-04-18T12:42:51.780Z,7.97
2023-04-18T12:45:19.941Z,8.90
2023-04-18T12:47:48.234Z,8.80
2023-04-18T12:50:17.816Z,9.13
2023-04-18T12:52:45.426Z,8.75
2023-04-18T12:55:12.839Z,8.55
2023-04-18T12:57:41.570Z,8.70
2023-04-18T13:00:12.848Z,8.23
2023-04-18T13:02:42.191Z,7.78
2023-04-18T13:05:10.876Z,9.15
2023-04-18T13:07:40.440Z,9.98
2023-04-18T13:10:09.099Z,8.93
2023-04-18T13:12:36.548Z,10.40
2023-04-18T13:15:05.229Z,9.68
2023-04-18T13:17:33.757Z,9.45
2023-04-18T13:20:01.557Z,9.43
2023-04-18T13:22:30.885Z,9.25
2023-04-18T13:24:58.502Z,10.65
2023-04-18T13:27:25.889Z,10.40
2023-04-18T13:29:53.301Z,9.40
2023-04-18T13:32:21.059Z,9.35
2023-04-18T13:34:48.620Z,9.45
2023-04-18T13:37:16.046Z,9.50
2023-04-18T13:39:43.772Z,9.77
2023-04-18T13:42:11.284Z,9.75
2023-04-18T13:44:38.634Z,9.63
2023-04-18T13:47:06.626Z,9.50
2023-04-18T13:49:34.283Z,10.02
2023-04-18T13:52:01.817Z,8.85
2023-04-18T13:54:30.667Z,8.60
2023-04-18T13:56:59.302Z,9.50
2023-04-18T13:59:26.999Z,8.23
2023-04-18T14:01:54.826Z,8.55
2023-04-18T14:04:22.857Z,8.70
2023-04-18T14:06:50.663Z,8.82
2023-04-18T14:09:18.064Z,7.93
2023-04-18T14:11:46.400Z,7.72
2023-04-18T14:14:13.776Z,8.13
2023-04-18T14:16:41.182Z,7.68
2023-04-18T14:19:08.809Z,8.15
2023-04-18T14:21:36.210Z,7.80
2023-04-18T14:24:05.515Z,7.03
2023-04-18T14:26:33.125Z,7.00
2023-04-18T14:29:00.652Z,6.97
2023-04-18T14:31:28.212Z,8.02
2023-04-18T14:33:55.900Z,8.13
2023-04-18T14:36:23.228Z,7.60
2023-04-18T14:38:50.624Z,7.55
2023-04-18T14:41:18.469Z,8.10
2023-04-18T14:43:45.922Z,8.80
2023-04-18T14:46:13.901Z,7.93
2023-04-18T14:48:41.635Z,9.48
2023-04-18T14:51:09.060Z,7.68
2023-04-18T14:53:36.531Z,7.30
2023-04-18T14:56:04.213Z,8.70
2023-04-18T14:58:31.776Z,8.18
2023-04-18T15:00:59.153Z,7.90
2023-04-18T15:03:26.871Z,8.63
2023-04-18T15:05:55.066Z,8.68
2023-04-18T15:08:22.464Z,8.75
2023-04-18T15:10:50.090Z,8.20
2023-04-18T15:13:17.680Z,8.73
2023-04-18T15:15:54.008Z,8.15
2023-04-18T15:18:21.743Z,8.57
2023-04-18T15:20:49.168Z,7.90
2023-04-18T15:23:16.578Z,8.35
2023-04-18T15:25:44.462Z,8.13
2023-04-18T15:28:13.468Z,8.50
2023-04-18T15:30:40.894Z,7.80
2023-04-18T15:33:08.631Z,9.48
2023-04-18T15:35:36.152Z,8.45
2023-04-18T15:38:03.515Z,8.68
2023-04-18T15:40:32.915Z,8.82
2023-04-18T15:43:00.551Z,9.18
2023-04-18T15:45:27.873Z,8.43
2023-04-18T15:47:55.764Z,8.43
2023-04-18T15:50:23.580Z,8.80
2023-04-18T15:52:51.111Z,8.35
2023-04-18T15:55:18.712Z,9.18
2023-04-18T15:57:46.361Z,8.63
2023-04-18T16:00:16.278Z,8.88
2023-04-18T16:02:44.464Z,8.52
2023-04-18T16:05:15.410Z,8.60
2023-04-18T16:07:42.957Z,8.57
2023-04-18T16:10:11.123Z,8.40
2023-04-18T16:12:39.253Z,8.35
2023-04-18T16:15:08.409Z,8.77
2023-04-18T16:17:39.288Z,8.80
2023-04-18T16:20:08.479Z,8.70
2023-04-18T16:22:36.584Z,9.05
2023-04-18T16:25:04.681Z,8.60
2023-04-18T16:27:32.495Z,9.15
2023-04-18T16:30:00.231Z,9.05
2023-04-18T16:32:27.592Z,8.77
2023-04-18T16:34:55.139Z,8.65
2023-04-18T16:37:22.754Z,11.02
2023-04-18T16:39:50.211Z,15.77
2023-04-18T16:42:17.579Z,13.82
2023-04-18T16:44:45.975Z,10.30
2023-04-18T16:47:13.346Z,9.95
2023-04-18T16:49:41.310Z,10.07
2023-04-18T16:52:09.093Z,8.55
2023-04-18T16:54:36.496Z,9.57
2023-04-18T16:57:04.734Z,8.60
2023-04-18T16:59:32.377Z,8.95
2023-04-18T17:01:59.843Z,9.40
2023-04-18T17:04:27.338Z,8.57
2023-04-18T17:06:57.765Z,8.75
2023-04-18T17:09:25.225Z,9.88
2023-04-18T17:11:54.528Z,9.68
2023-04-18T17:14:22.148Z,9.57
2023-04-18T17:16:51.312Z,9.55
2023-04-18T17:19:20.263Z,10.18
2023-04-18T17:21:49.101Z,9.68
2023-04-18T17:24:18.648Z,9.65
2023-04-18T17:26:46.246Z,11.38
2023-04-18T17:29:14.049Z,11.68
2023-04-18T17:31:41.600Z,11.02
2023-04-18T17:34:09.128Z,9.98
2023-04-18T17:36:36.872Z,10.65
2023-04-18T17:39:07.384Z,10.13
2023-04-18T17:41:36.389Z,11.75
2023-04-18T17:44:04.200Z,11.07
2023-04-18T17:46:31.960Z,9.68
2023-04-18T17:48:59.402Z,11.48
2023-04-18T17:51:27.417Z,10.07
2023-04-18T17:53:55.110Z,8.70
2023-04-18T17:56:22.541Z,9.75
2023-04-18T17:58:50.175Z,10.02
2023-04-18T18:01:18.787Z,9.10
2023-04-18T18:03:47.166Z,10.30
2023-04-18T18:06:15.035Z,9.70
2023-04-18T18:08:42.638Z,10.43
2023-04-18T18:11:10.749Z,10.13
2023-04-18T18:13:39.029Z,9.57
2023-04-18T18:16:06.655Z,9.63
2023-04-18T18:18:35.256Z,10.15
2023-04-18T18:21:02.628Z,11.45
2023-04-18T18:23:29.975Z,10.60
2023-04-18T18:25:57.595Z,10.10
2023-04-18T18:28:24.925Z,10.38
2023-04-18T18:30:52.389Z,10.68
2023-04-18T18:33:20.097Z,9.88
2023-04-18T18:35:47.445Z,10.63
2023-04-18T18:38:14.904Z,11.52
2023-04-18T18:40:42.528Z,12.35
2023-04-18T18:43:09.846Z,11.05
2023-04-18T18:45:38.042Z,11.43
2023-04-18T18:48:07.224Z,12.90
2023-04-18T18:50:34.692Z,10.57
2023-04-18T18:53:02.069Z,11.10
2023-04-18T18:55:29.863Z,11.43
2023-04-18T18:57:57.236Z,11.50
2023-04-18T19:00:24.890Z,13.25
2023-04-18T19:02:52.949Z,14.50
2023-04-18T19:05:21.151Z,13.65
2023-04-18T19:07:49.151Z,14.13
2023-04-18T19:10:16.958Z,14.38
2023-04-18T19:12:44.337Z,13.52
2023-04-18T19:15:12.023Z,11.27
2023-04-18T19:17:39.695Z,11.80
2023-04-18T19:20:08.098Z,11.20
2023-04-18T19:22:35.527Z,11.65
2023-04-18T19:25:03.188Z,12.05
2023-04-18T19:27:30.952Z,10.73
2023-04-18T19:29:58.334Z,12.80
2023-04-18T19:32:26.193Z,12.23
2023-04-18T19:34:53.588Z,10.63
2023-04-18T19:37:21.122Z,9.73
2023-04-18T19:39:48.863Z,9.63
2023-04-18T19:42:16.245Z,10.98
2023-04-18T19:44:44.257Z,10.25
2023-04-18T19:47:11.880Z,10.00
2023-04-18T19:49:39.364Z,12.73
2023-04-18T19:52:06.783Z,9.88
2023-04-18T19:54:34.434Z,10.43
2023-04-18T19:57:02.439Z,10.65
2023-04-18T19:59:29.801Z,10.18
2023-04-18T20:02:00.554Z,8.82
2023-04-18T20:04:31.539Z,9.25
2023-04-18T20:06:59.206Z,8.80
2023-04-18T20:09:26.788Z,9.18
2023-04-18T20:11:54.446Z,10.82
2023-04-18T20:14:21.895Z,9.85
2023-04-18T20:16:49.710Z,9.25
2023-04-18T20:19:18.258Z,9.02
2023-04-18T20:21:45.775Z,9.27
2023-04-18T20:24:13.497Z,10.40
2023-04-18T20:26:41.155Z,8.75
2023-04-18T20:29:08.555Z,9.30
2023-04-18T20:31:37.681Z,9.13
2023-04-18T20:34:05.658Z,8.73
2023-04-18T20:36:34.352Z,8.88
2023-04-18T20:39:02.429Z,9.07
2023-04-18T20:41:32.020Z,9.32
2023-04-18T20:43:59.921Z,9.95
2023-04-18T20:46:27.301Z,10.30
2023-04-18T20:48:55.026Z,9.68
2023-04-18T20:51:22.354Z,9.75
2023-04-18T20:53:49.721Z,10.27
2023-04-18T20:56:17.298Z,10.10
2023-04-18T20:58:44.714Z,9.98
2023-04-18T21:01:12.310Z,9.20
2023-04-18T21:03:40.034Z,9.70
2023-04-18T21:06:07.437Z,10.48
2023-04-18T21:08:35.236Z,10.77
2023-04-18T21:11:02.922Z,9.35
2023-04-18T21:13:31.713Z,9.27
2023-04-18T21:15:59.122Z,9.93
2023-04-18T21:18:26.796Z,9.35
2023-04-18T21:20:54.150Z,9.45
2023-04-18T21:23:23.199Z,9.35
2023-04-18T21:25:50.841Z,9.43
2023-04-18T21:28:21.250Z,9.95
2023-04-18T21:30:48.601Z,8.13
2023-04-18T21:33:16.518Z,8.98
2023-04-18T21:35:43.867Z,8.82
2023-04-18T21:38:11.223Z,8.93
2023-04-18T21:40:38.835Z,9.32
2023-04-18T21:43:06.264Z,9.57
2023-04-18T21:45:33.777Z,9.27
2023-04-18T21:48:01.503Z,8.32
2023-04-18T21:50:28.894Z,9.23
2023-04-18T21:52:56.313Z,8.75
2023-04-18T21:55:23.942Z,8.80
2023-04-18T21:57:51.316Z,9.23
2023-04-18T22:00:19.106Z,9.80
2023-04-18T22:02:47.503Z,8.90
2023-04-18T22:05:16.121Z,10.18
2023-04-18T22:07:56.932Z,9.10
2023-04-18T22:10:25.941Z,9.95
2023-04-18T22:12:56.387Z,9.82
2023-04-18T22:15:24.245Z,10.10
2023-04-18T22:17:51.927Z,11.12
2023-04-18T22:20:19.300Z,10.70
2023-04-18T22:22:46.668Z,10.35
2023-04-18T22:25:14.297Z,9.25
2023-04-18T22:27:42.628Z,9.20
2023-04-18T22:30:10.353Z,9.32
2023-04-18T22:32:38.012Z,8.98
2023-04-18T22:35:06.633Z,9.45
2023-04-18T22:37:33.984Z,9.57
2023-04-18T22:40:01.650Z,9.38
2023-04-18T22:42:30.039Z,8.98
2023-04-18T22:44:57.788Z,9.70
2023-04-18T22:47:25.959Z,8.90
2023-04-18T22:49:53.725Z,8.52
2023-04-18T22:52:24.675Z,8.55
2023-04-18T22:54:52.505Z,8.98
2023-04-18T22:57:19.896Z,9.15
2023-04-18T22:59:47.207Z,9.38
2023-04-18T23:02:14.987Z,8.88
2023-04-18T23:04:42.536Z,9.10
2023-04-18T23:07:09.966Z,9.13
2023-04-18T23:09:37.599Z,9.75
2023-04-18T23:12:05.239Z,8.90
2023-04-18T23:14:32.571Z,9.60
2023-04-18T23:17:00.946Z,9.77
2023-04-18T23:19:28.287Z,8.80
2023-04-18T23:21:55.648Z,9.48
2023-04-18T23:24:23.294Z,9.50
2023-04-18T23:26:50.628Z,8.40
2023-04-18T23:29:17.994Z,8.65
2023-04-18T23:31:45.825Z,9.35
2023-04-18T23:34:13.442Z,9.55
2023-04-18T23:36:41.119Z,8.70
2023-04-18T23:39:08.756Z,8.73
2023-04-18T23:41:36.145Z,9.27
2023-04-18T23:44:03.502Z,9.20
2023-04-18T23:46:31.270Z,8.88
2023-04-18T23:48:58.642Z,9.65
2023-04-18T23:51:26.819Z,8.98
2023-04-18T23:53:54.398Z,9.50
2023-04-18T23:56:23.210Z,8.45
2023-04-18T23:58:50.636Z,8.27
